Aberdeen, United Kingdom

17:26 BST dnia 27-marzec-2017 (GMT +0100)
Stoneywood | | Change Station

Wysokość 200 ft 57.19 °N, 2.18 °W | Updated 7 seconds ago

Clear
pogodnie
55.8 ° F
Odczuwalna 55.8 ° F
Płn.
2.9
Wiatr zmienny Wiatr od południowy
Gusts 4.9 mph

Dziś
Wysoka -- | Niska -- ° F
--% Prawdop. opadów
Wczoraj
Wysoka -- | Niska -- ° F
Precip. -- cali
Ciśnienie 30.18 cali
Widzialność 6.2 mil
chmury
Punkt rosy 39 ° F
Wilgotność 54%
Opady deszczu 0.00 cali
grubość pokrywy śnieżnej Niedostępne.
6:51 AM 7:38 PM
Zmniejszający się sierp Księżyca, 0% visible
METAR EGPD 271620Z AUTO 17009KT 9999 NCD 13/03 Q1022 NOSIG
Ciśnienie 30.18 cali
Widzialność 6.2 mil
chmury
Punkt rosy 39 ° F
Wilgotność 54%
Opady deszczu 0.00 cali
grubość pokrywy śnieżnej Niedostępne.
6:51 AM 7:38 PM
Zmniejszający się sierp Księżyca, 0% visible
METAR EGPD 271620Z AUTO 17009KT 9999 NCD 13/03 Q1022 NOSIG

Get Severe Weather Alerts

Thanks for signing up!

Be on the lookout for a verification email in your inbox.

You'll start receiving the daily forecast at 8 AM.

×

10-Day Weather Forecast

×

Almanac

Astronomia

Mar. 27, 2017 Wschód Zachów
Aktualny czas
Zmierzch cywilny
Zmierzch żeglarski
świt/zmierzch astronomiczny
Księżyc
całkowite oświetlenie
Długość dnia
Tomorrow will be .
, % of the Moon is Illuminated

Dzisiejsze ekstrema

Country Highs Country Lows

Community

WunderPhotos

Upload Photos

1,962,540 zdjęcia zostały przesłane!

WunderBlog® & News

Nearby

Jakość powietrza

  Jakość powietrza czynnik AQ Zanieczyszczenie
Not available.

Głębokość pokrywy śnieżnej

Station Depth n.p.m.

Aktywność sejsmiczna

Miejscowość Distance Mag. Time & Date
Minimum magnitude displayed is 2.5.

Aktywność sejsmiczna

Miejscowość Distance Mag. Time & Date
Minimum magnitude displayed is 2.5.

Temperatury wody na wybrzeżu

Miejsce Temperatura

Stations

Najbliższa stacja pogodowa

Lokalizacja stacji Temp. czynnik chłodzący wiatru Punkt rosy Wilgotność Wiatr Precip. Wysokość Uaktualniono Typ